Aeroporto :
LOGIN :

Iscrizione | Disclaimer

   EN    FR    IT 

 










Sommario :    VFR   VFR Marginale   IFR   IFR Intensivo   IFR Molto Intensivo
Visibilità : 
Base nubi : 
>= 8 km
>= 3000ft
5 / 8 km
1000 / 3000 ft
1500m / 5 km
500 / 1000 ft
800 / 1500m
200 / 500 ft
< 800m
< 200 ft
Simboli :   Temporali  Nebbia  Neve Forte  Precipitazioni Forti  Vento > 20 kt
SIGMETs :   Varie  Temporali  Ghiacco  Turbolenza  Onda orograficha  Ceneri Vulcaniche






- Altitudine del aeroporto : 183 ft
- Codice IATA : HAJ


EDDV - Hanover/Langenhagen Int.

ULTIMO METAR :
  • 241150Z 19012KT 150V220 9999 BKN046 06/01 Q1015 NOSIG

METARs OBSOLETI :
  • 241120Z 18009KT 150V210 9999 FEW026 06/01 Q1016 NOSIG
  • 241050Z 20009KT 170V230 9999 FEW026 06/01 Q1017 NOSIG
  • 241020Z 23008KT 190V250 9999 FEW026 06/02 Q1018 NOSIG
  • 240950Z 22006KT 180V240 9999 FEW026 06/02 Q1018 NOSIG
  • 240920Z 23008KT 9999 FEW026 06/02 Q1019 NOSIG

TAF TAF EDDV
Valido dal 24 a 12 ore il 25 a 12 ore UTC


241100Z 2412/2512 23010KT 9999 SCT030
BECMG 2412/2415 16010KT
TEMPO 2413/2424 4500 -RADZ BKN012
PROB30
TEMPO 2414/2419 23015G30KT 2500 DZRA BKN008
BECMG 2419/2421 23015G25KT
TEMPO 2420/2512 24020G35KT
PROB30
TEMPO 2421/2512 25025G45KT SHRA BKN013CB



MetMap, La meteo Aeronautica in un colpo d'occhio ! - Copyright ORBIFLY Dicembre 2007 - Disclaimer

ORBIFLY MET'MAP TEAM :

Programmazione e sviluppo : Alexandra Zaïnal
Concezione : Baudouin d'Aumeries
Aiuto per la programmazione : Marc-Olivier Méhu
Supporto tecnico e logistico : Manuel Goepfert
Aiuto per la traduzione : Arnaldo La Scala

Contatto : metmap@orbifly.com




FONTI E CREDITI :

   NOAA